AirNav   Pilot Hours Calculator
 
 1111 users online  

MD02 St Mary's Hospital East Heliport
Leonardtown, Maryland, USA

GOING TO LEONARDTOWN?


FAA INFORMATION EFFECTIVE 16 JUNE 2022

Location

FAA Identifier: MD02
Lat/Long: 38-18-05.1600N 076-38-12.4800W
38-18.086000N 076-38.208000W
38.3014333,-76.6368000
(estimated)
Elevation: 96 ft. / 29 m (estimated)
Time zone: UTC -4 (UTC -5 during Standard Time)
Zip code: 20650

Heliport Operations

Heliport use: Private use, MEDICAL USE.
Activation date: 06/2003
Control tower: no
ARTCC: WASHINGTON CENTER
FSS: LEESBURG FLIGHT SERVICE STATION
Attendance: UNATNDD
Wind indicator: lighted
Segmented circle: no
Lights: FOR PERI LGTS CALL 301-475-6011.

Heliport Communications

WX AWOS-3 at 2W6 (4 nm E): 119.575 (301-373-6514)

Heliport Services

Runway Information

Helipad H1

Dimensions: 45 x 45 ft. / 14 x 14 m
Surface: concrete
Latitude: 38-18.086000N
Longitude: 076-38.207833W
Elevation: 96.0 ft.
Traffic pattern: leftleft

Helipad H2

Dimensions: 45 x 45 ft. / 14 x 14 m
Surface: concrete
Latitude: 38-18.123500N
Longitude: 076-38.358500W
Elevation: 96.0 ft.
Traffic pattern: leftleft

Heliport Ownership and Management from official FAA records

Ownership: Privately-owned
Owner: ST. MARY'S HOSPITAL
25500 POINT LOOKOUT RD
LEONARDTOWN, MD 20650
Phone (301) 475-6001
Manager: JOHN GREELY
25500 POINT LOOKOUT RD
LEONARDTOWN, MD 20650
Phone (301) 475-6110
EMERG DEPT-301-475-6110.

Additional Remarks

FOR CD CTC WASHINGTON ARTCC AT 703-771-3587.

Instrument Procedures

There are no published instrument procedures at MD02.

Some nearby airports with instrument procedures:

2W6 - St Mary's County Regional Airport (4 nm E)
KNHK - Patuxent River Naval Air Station (Trapnell Field) (11 nm E)
2W5 - Maryland Airport (27 nm NW)
KXSA - Tappahannock/Essex County Airport (29 nm SW)
W32 - Washington Executive Airport/Hyde Field (30 nm NW)
 
Loc | Ops | Rwys | IFR | FBO | Links
Com | Nav | Svcs | Stats | Notes
Area around MD02 (St Mary's Hospital East Heliport)
 
Road maps at: MapQuest Bing Google
 
Aerial photo
No photo
 
Sectional chart

 
Airport distance calculator
Flying to St Mary's Hospital East Heliport? Find the distance to fly.

From to MD02

Sunrise and sunset
Times for 02-Jul-2022
 Local
(UTC-4)
 Zulu
(UTC)
Morning civil twilight05:1709:17
Sunrise05:4809:48
Sunset20:3300:33
Evening civil twilight21:0401:04

Current date and time
Zulu (UTC)  02-Jul-2022 15:58:35
Local (UTC-4)  02-Jul-2022 11:58:35
 
METAR
K2W6 
4nm E 
021540Z AUTO 23009KT 190V250 10SM CLR 29/23 A3000 RMK AO1
KNHK 
11nm E 
021452Z 21010G17KT 10SM FEW021 SCT200 BKN280 28/22 A2999 RMK AO2 SLP154 T02830222 55000 $
KNUI 
14nm SE 
021553Z AUTO 20008KT 10SM CLR 31/23 A2998 RMK AO2 SLP150 T03060228
TAF
KNHK 
11nm E 
0207/0307 22010KT 9999 FEW110 SCT280 QNH2993INS BECMG 0215/0217 13008KT 9999 FEW050 SCT110 BKN280 QNH2993INS BECMG 0219/0221 14009KT 9999 VCTS SCT050CB BKN110 BKN280 QNH2988INS TEMPO 0222/0304 VRB15G35KT 3200 TSRA FEW015 BKN040CB OVC090 AUTOMATED SENSOR METWATCH 0207 TIL 0211 T23/0210Z T33/0218Z FN00150
NOTAMs
Click for the latest NOTAMs
NOTAMs are issued by the DoD/FAA and will open in a separate window not controlled by AirNav.

 

 
 

Would you like to see your business listed on this page?

 If your business provides an interesting product or service to pilots, flight crews, aircraft, or users of the St Mary's Hospital East Heliport, you should consider listing it here.  To start the listing process, click on the button below
 
Add a business
 

Other Pages about St Mary's Hospital East Heliport

Update a link
 
Copyright © AirNav, LLC. All rights reserved. Privacy Policy  Contact